createdAt,value
2023-01-20T00:02:05.770Z,10.32
2023-01-20T00:04:53.257Z,9.80
2023-01-20T00:07:40.608Z,10.57
2023-01-20T00:10:28.056Z,11.15
2023-01-20T00:13:15.596Z,10.65
2023-01-20T00:16:08.307Z,10.80
2023-01-20T00:18:55.683Z,11.43
2023-01-20T00:21:43.527Z,12.13
2023-01-20T00:24:30.757Z,9.95
2023-01-20T00:27:20.386Z,11.45
2023-01-20T00:30:08.692Z,11.20
2023-01-20T00:32:56.414Z,10.88
2023-01-20T00:35:43.703Z,12.00
2023-01-20T00:38:30.934Z,10.25
2023-01-20T00:41:18.896Z,11.55
2023-01-20T00:44:06.307Z,11.65
2023-01-20T00:46:53.789Z,11.93
2023-01-20T00:49:41.287Z,11.80
2023-01-20T00:52:28.569Z,11.75
2023-01-20T00:55:16.134Z,10.15
2023-01-20T00:58:05.217Z,11.80
2023-01-20T01:00:55.269Z,12.75
2023-01-20T01:03:43.038Z,11.07
2023-01-20T01:06:30.318Z,12.68
2023-01-20T01:09:17.644Z,12.23
2023-01-20T01:12:04.937Z,12.05
2023-01-20T01:14:52.689Z,11.05
2023-01-20T01:17:40.220Z,12.40
2023-01-20T01:20:30.995Z,11.98
2023-01-20T01:23:18.548Z,12.48
2023-01-20T01:26:06.251Z,12.77
2023-01-20T01:28:54.013Z,13.25
2023-01-20T01:31:41.489Z,11.80
2023-01-20T01:34:29.009Z,12.45
2023-01-20T01:37:16.865Z,8.32
2023-01-20T01:40:05.057Z,13.57
2023-01-20T01:42:52.271Z,13.50
2023-01-20T01:45:39.591Z,13.68
2023-01-20T01:48:30.606Z,14.55
2023-01-20T01:51:23.408Z,12.38
2023-01-20T01:54:18.723Z,13.63
2023-01-20T01:57:09.748Z,13.15
2023-01-20T01:59:58.545Z,13.05
2023-01-20T02:02:45.980Z,12.88
2023-01-20T02:05:35.306Z,12.63
2023-01-20T02:08:23.124Z,12.85
2023-01-20T02:11:10.664Z,13.02
2023-01-20T02:13:59.239Z,13.77
2023-01-20T02:17:05.770Z,11.75
2023-01-20T02:20:10.997Z,12.80
2023-01-20T02:23:15.256Z,13.65
2023-01-20T02:26:21.186Z,13.48
2023-01-20T02:29:08.526Z,13.63
2023-01-20T02:32:09.745Z,13.27
2023-01-20T02:35:12.062Z,13.95
2023-01-20T02:38:16.158Z,13.27
2023-01-20T02:41:25.269Z,13.32
2023-01-20T02:44:26.973Z,12.75
2023-01-20T02:47:20.188Z,12.82
2023-01-20T02:50:16.170Z,14.27
2023-01-20T02:53:05.882Z,13.23
2023-01-20T02:55:55.207Z,11.55
2023-01-20T02:58:49.142Z,14.82
2023-01-20T03:01:45.976Z,12.88
2023-01-20T03:04:41.756Z,14.00
2023-01-20T03:07:32.097Z,13.75
2023-01-20T03:10:24.855Z,13.65
2023-01-20T03:13:36.175Z,15.57
2023-01-20T03:16:26.631Z,16.13
2023-01-20T03:19:15.957Z,14.80
2023-01-20T03:22:03.756Z,14.57
2023-01-20T03:24:51.754Z,10.25
2023-01-20T03:27:39.370Z,15.32
2023-01-20T03:30:27.030Z,16.48
2023-01-20T03:33:16.823Z,15.85
2023-01-20T03:36:04.382Z,17.63
2023-01-20T03:38:52.951Z,16.63
2023-01-20T03:41:42.951Z,18.42
2023-01-20T03:45:08.215Z,19.67
2023-01-20T03:48:04.222Z,19.23
2023-01-20T03:51:03.781Z,14.45
2023-01-20T03:54:01.417Z,18.52
2023-01-20T03:56:54.357Z,11.27
2023-01-20T03:59:44.274Z,18.98
2023-01-20T04:02:33.485Z,19.30
2023-01-20T04:05:21.999Z,18.80
2023-01-20T04:08:11.355Z,17.23
2023-01-20T04:11:01.385Z,16.95
2023-01-20T04:13:50.493Z,18.95
2023-01-20T04:16:38.307Z,20.80
2023-01-20T04:19:26.640Z,14.38
2023-01-20T04:22:49.030Z,19.75
2023-01-20T04:25:36.811Z,18.25
2023-01-20T04:28:24.380Z,17.48
2023-01-20T04:31:28.675Z,11.52
2023-01-20T04:34:16.932Z,18.33
2023-01-20T04:37:04.187Z,20.48
2023-01-20T04:39:51.371Z,16.88
2023-01-20T04:42:38.865Z,19.15
2023-01-20T04:45:26.008Z,23.25
2023-01-20T04:48:13.256Z,17.92
2023-01-20T04:51:04.562Z,19.88
2023-01-20T04:53:55.975Z,15.43
2023-01-20T04:56:44.099Z,16.52
2023-01-20T04:59:31.202Z,18.83
2023-01-20T05:02:18.555Z,21.67
2023-01-20T05:05:05.957Z,22.48
2023-01-20T05:07:54.061Z,18.80
2023-01-20T05:10:41.234Z,14.00
2023-01-20T05:13:28.768Z,19.88
2023-01-20T05:16:21.786Z,19.73
2023-01-20T05:19:11.768Z,8.77
2023-01-20T05:21:59.901Z,16.40
2023-01-20T05:24:46.918Z,17.20
2023-01-20T05:27:37.801Z,16.58
2023-01-20T05:30:25.169Z,18.15
2023-01-20T05:33:12.359Z,19.13
2023-01-20T05:35:59.815Z,10.10
2023-01-20T05:38:47.076Z,15.60
2023-01-20T05:41:34.189Z,11.85
2023-01-20T05:44:21.292Z,16.58
2023-01-20T05:47:08.389Z,18.30
2023-01-20T05:49:55.475Z,19.00
2023-01-20T05:52:42.445Z,20.70
2023-01-20T05:55:29.782Z,19.70
2023-01-20T05:58:17.236Z,21.08
2023-01-20T06:01:13.843Z,16.85
2023-01-20T06:04:00.972Z,17.33
2023-01-20T06:06:48.037Z,17.83
2023-01-20T06:09:35.165Z,17.20
2023-01-20T06:12:22.534Z,16.10
2023-01-20T06:15:10.273Z,17.42
2023-01-20T06:17:57.987Z,15.50
2023-01-20T06:20:45.145Z,16.38
2023-01-20T06:23:32.527Z,16.85
2023-01-20T06:26:19.769Z,17.15
2023-01-20T06:29:07.034Z,21.00
2023-01-20T06:31:54.868Z,17.08
2023-01-20T06:34:42.046Z,21.17
2023-01-20T06:37:29.235Z,16.23
2023-01-20T06:40:17.297Z,12.80
2023-01-20T06:43:04.454Z,15.57
2023-01-20T06:45:51.908Z,14.63
2023-01-20T06:48:39.652Z,13.20
2023-01-20T06:51:29.455Z,15.40
2023-01-20T06:54:17.871Z,17.33
2023-01-20T06:57:05.042Z,13.35
2023-01-20T06:59:52.085Z,14.77
2023-01-20T07:02:39.213Z,10.55
2023-01-20T07:05:26.312Z,14.48
2023-01-20T07:08:13.287Z,12.30
2023-01-20T07:11:00.319Z,15.65
2023-01-20T07:13:47.475Z,14.20
2023-01-20T07:16:34.849Z,15.52
2023-01-20T07:19:21.909Z,16.00
2023-01-20T07:22:09.103Z,14.52
2023-01-20T07:24:56.274Z,15.27
2023-01-20T07:27:43.767Z,17.60
2023-01-20T07:30:31.003Z,14.48
2023-01-20T07:33:18.188Z,12.25
2023-01-20T07:36:07.017Z,16.48
2023-01-20T07:38:54.146Z,23.30
2023-01-20T07:41:42.139Z,13.05
2023-01-20T07:44:29.224Z,13.40
2023-01-20T07:47:16.272Z,12.55
2023-01-20T07:50:03.721Z,11.57
2023-01-20T07:52:50.829Z,14.65
2023-01-20T07:55:38.105Z,17.45
2023-01-20T07:58:25.174Z,11.25
2023-01-20T08:01:26.898Z,10.07
2023-01-20T08:04:14.425Z,9.90
2023-01-20T08:07:01.612Z,10.73
2023-01-20T08:09:50.125Z,10.75
2023-01-20T08:12:37.380Z,11.57
2023-01-20T08:15:24.530Z,11.40
2023-01-20T08:18:11.796Z,10.48
2023-01-20T08:20:59.925Z,11.13
2023-01-20T08:23:47.345Z,11.35
2023-01-20T08:26:34.454Z,10.93
2023-01-20T08:29:21.519Z,10.43
2023-01-20T08:32:08.820Z,10.32
2023-01-20T08:34:55.909Z,10.38
2023-01-20T08:37:43.254Z,10.98
2023-01-20T08:40:30.579Z,13.15
2023-01-20T08:43:17.987Z,12.43
2023-01-20T08:46:08.652Z,13.55
2023-01-20T08:48:56.474Z,12.52
2023-01-20T08:51:45.085Z,13.85
2023-01-20T08:54:34.645Z,14.30
2023-01-20T08:57:25.277Z,13.90
2023-01-20T09:00:13.743Z,13.63
2023-01-20T09:03:00.860Z,14.38
2023-01-20T09:05:48.461Z,13.90
2023-01-20T09:08:37.081Z,15.27
2023-01-20T09:11:25.067Z,11.13
2023-01-20T09:14:12.350Z,15.85
2023-01-20T09:17:01.299Z,11.98
2023-01-20T09:19:48.451Z,17.63
2023-01-20T09:22:35.612Z,17.08
2023-01-20T09:25:22.752Z,17.17
2023-01-20T09:28:09.923Z,14.77
2023-01-20T09:31:06.553Z,16.33
2023-01-20T09:33:53.705Z,15.38
2023-01-20T09:36:41.666Z,11.77
2023-01-20T09:39:47.381Z,17.38
2023-01-20T09:43:31.019Z,16.95
2023-01-20T09:46:39.492Z,15.73
2023-01-20T09:50:01.876Z,18.08
2023-01-20T09:53:04.717Z,12.13
2023-01-20T09:56:17.012Z,13.25
2023-01-20T09:59:12.127Z,11.32
2023-01-20T10:02:04.423Z,12.82
2023-01-20T10:04:57.269Z,12.40
2023-01-20T10:07:56.640Z,12.15
2023-01-20T10:10:55.338Z,11.40
2023-01-20T10:13:52.321Z,11.85
2023-01-20T10:16:45.589Z,10.77
2023-01-20T10:19:59.032Z,11.43
2023-01-20T10:22:53.505Z,9.25
2023-01-20T10:25:55.732Z,10.00
2023-01-20T10:28:57.946Z,9.13
2023-01-20T10:31:56.928Z,8.52
2023-01-20T10:34:49.405Z,9.93
2023-01-20T10:37:36.888Z,9.43
2023-01-20T10:40:24.232Z,9.70
2023-01-20T10:43:16.994Z,9.48
2023-01-20T10:46:19.291Z,9.27
2023-01-20T10:49:45.576Z,8.57
2023-01-20T10:52:51.225Z,9.50
2023-01-20T10:55:57.896Z,6.30
2023-01-20T10:58:46.706Z,7.63
2023-01-20T11:01:35.870Z,7.38
2023-01-20T11:04:23.179Z,8.00
2023-01-20T11:07:17.122Z,9.23
2023-01-20T11:10:15.479Z,7.50
2023-01-20T11:13:03.130Z,9.63
2023-01-20T11:16:03.969Z,9.05
2023-01-20T11:19:03.308Z,9.13
2023-01-20T11:21:50.668Z,9.15
2023-01-20T11:24:43.347Z,8.70
2023-01-20T11:27:40.284Z,9.00
2023-01-20T11:30:34.071Z,9.18
2023-01-20T11:33:25.326Z,9.60
2023-01-20T11:36:24.003Z,9.25
2023-01-20T11:39:35.691Z,9.70
2023-01-20T11:42:44.919Z,9.93
2023-01-20T11:45:34.912Z,9.80
2023-01-20T11:48:23.457Z,8.95
2023-01-20T11:51:26.643Z,9.98
2023-01-20T11:54:18.654Z,10.35
2023-01-20T11:57:08.139Z,9.63
2023-01-20T11:59:55.357Z,9.77
2023-01-20T12:02:42.586Z,8.57
2023-01-20T12:05:39.354Z,10.05
2023-01-20T12:08:29.213Z,10.30
2023-01-20T12:11:24.975Z,10.50
2023-01-20T12:14:20.668Z,10.52
2023-01-20T12:17:57.284Z,9.80
2023-01-20T12:20:56.780Z,21.73
2023-01-20T12:23:51.039Z,10.38
2023-01-20T12:26:38.395Z,10.43
2023-01-20T12:29:45.098Z,10.15
2023-01-20T12:32:33.318Z,9.45
2023-01-20T12:35:24.876Z,9.68
2023-01-20T12:38:18.832Z,10.18
2023-01-20T12:41:13.667Z,8.98
2023-01-20T12:44:13.824Z,8.68
2023-01-20T12:47:40.173Z,9.10
2023-01-20T12:50:53.199Z,8.32
2023-01-20T12:53:40.466Z,7.78
2023-01-20T12:56:57.422Z,8.13
2023-01-20T12:59:54.500Z,7.47
2023-01-20T13:02:47.716Z,8.02
2023-01-20T13:05:44.533Z,7.50
2023-01-20T13:08:59.767Z,7.88
2023-01-20T13:12:04.835Z,7.60
2023-01-20T13:15:13.726Z,6.35
2023-01-20T13:18:01.191Z,6.50
2023-01-20T13:20:49.069Z,6.50
2023-01-20T13:23:37.423Z,5.43
2023-01-20T13:26:26.237Z,5.57
2023-01-20T13:29:34.777Z,5.57
2023-01-20T13:32:43.186Z,6.25
2023-01-20T13:35:30.322Z,5.97
2023-01-20T13:38:31.089Z,7.20
2023-01-20T13:41:47.601Z,5.88
2023-01-20T13:44:42.298Z,4.70
2023-01-20T13:48:00.492Z,4.78
2023-01-20T13:51:26.905Z,5.75
2023-01-20T13:54:24.073Z,5.43
2023-01-20T13:57:21.643Z,7.57
2023-01-20T14:00:13.621Z,7.00
2023-01-20T14:03:17.555Z,8.23
2023-01-20T14:06:20.840Z,6.50
2023-01-20T14:09:18.790Z,6.28
2023-01-20T14:12:08.313Z,6.80
2023-01-20T14:14:56.088Z,7.43
2023-01-20T14:17:43.358Z,6.65
2023-01-20T14:20:31.378Z,6.40
2023-01-20T14:23:27.230Z,7.28
2023-01-20T14:26:21.966Z,6.25
2023-01-20T14:29:20.193Z,6.65
2023-01-20T14:32:23.806Z,7.63
2023-01-20T14:35:29.962Z,6.70
2023-01-20T14:38:18.446Z,7.85
2023-01-20T14:41:05.819Z,8.40
2023-01-20T14:43:53.080Z,8.57
2023-01-20T14:46:41.144Z,7.55
2023-01-20T14:49:41.965Z,7.38
2023-01-20T14:52:31.038Z,6.70
2023-01-20T14:55:31.602Z,5.93
2023-01-20T14:58:19.902Z,6.43
2023-01-20T15:01:07.176Z,6.10
2023-01-20T15:04:00.148Z,6.53
2023-01-20T15:06:58.137Z,7.57
2023-01-20T15:09:54.561Z,7.82
2023-01-20T15:12:44.846Z,7.00
2023-01-20T15:15:33.008Z,6.90
2023-01-20T15:18:21.682Z,8.02
2023-01-20T15:21:27.980Z,7.10
2023-01-20T15:24:18.083Z,6.45
2023-01-20T15:27:23.029Z,6.38
2023-01-20T15:30:20.220Z,6.72
2023-01-20T15:33:09.223Z,6.20
2023-01-20T15:36:00.733Z,6.45
2023-01-20T15:38:48.098Z,6.25
2023-01-20T15:41:35.237Z,6.50
2023-01-20T15:44:24.470Z,7.05
2023-01-20T15:47:31.082Z,6.95
2023-01-20T15:50:21.665Z,7.05
2023-01-20T15:53:12.434Z,6.93
2023-01-20T15:56:00.539Z,6.15
2023-01-20T15:58:48.461Z,6.75
2023-01-20T16:01:35.715Z,7.10
2023-01-20T16:04:23.044Z,6.70
2023-01-20T16:07:14.372Z,6.88
2023-01-20T16:10:01.492Z,6.88
2023-01-20T16:12:49.078Z,7.13
2023-01-20T16:15:37.316Z,8.15
2023-01-20T16:18:24.596Z,8.23
2023-01-20T16:21:17.227Z,7.07
2023-01-20T16:24:04.741Z,7.60
2023-01-20T16:26:51.977Z,7.65
2023-01-20T16:29:39.190Z,10.23
2023-01-20T16:32:27.133Z,11.95
2023-01-20T16:35:16.296Z,15.60
2023-01-20T16:38:04.326Z,12.05
2023-01-20T16:40:58.601Z,11.75
2023-01-20T16:43:45.993Z,10.07
2023-01-20T16:46:33.474Z,11.13
2023-01-20T16:49:22.807Z,8.88
2023-01-20T16:52:10.997Z,9.27
2023-01-20T16:54:58.347Z,7.60
2023-01-20T16:57:45.756Z,10.07
2023-01-20T17:00:32.958Z,12.15
2023-01-20T17:03:20.887Z,10.65
2023-01-20T17:06:16.075Z,12.52
2023-01-20T17:09:05.355Z,12.00
2023-01-20T17:11:52.664Z,8.45
2023-01-20T17:14:39.770Z,7.93
2023-01-20T17:17:26.924Z,11.63
2023-01-20T17:20:14.445Z,7.78
2023-01-20T17:23:02.091Z,9.18
2023-01-20T17:25:49.394Z,10.32
2023-01-20T17:28:36.793Z,10.93
2023-01-20T17:31:24.807Z,12.85
2023-01-20T17:34:12.186Z,16.58
2023-01-20T17:37:00.153Z,13.20
2023-01-20T17:39:47.851Z,13.63
2023-01-20T17:42:35.342Z,12.57
2023-01-20T17:45:12.223Z,10.23
2023-01-20T17:47:59.696Z,9.75
2023-01-20T17:50:46.986Z,8.75
2023-01-20T17:53:34.932Z,8.73
2023-01-20T17:56:23.170Z,9.20
2023-01-20T17:59:10.406Z,8.88
2023-01-20T18:01:57.605Z,8.15
2023-01-20T18:04:44.827Z,9.15
2023-01-20T18:07:32.052Z,9.18
2023-01-20T18:10:19.262Z,8.70
2023-01-20T18:13:06.446Z,10.38
2023-01-20T18:15:53.643Z,9.55
2023-01-20T18:18:43.242Z,8.60
2023-01-20T18:21:32.751Z,17.45
2023-01-20T18:24:20.016Z,20.70
2023-01-20T18:27:07.165Z,26.92
2023-01-20T18:29:54.309Z,30.63
2023-01-20T18:32:41.514Z,32.90
2023-01-20T18:35:30.465Z,28.95
2023-01-20T18:38:17.615Z,33.03
2023-01-20T18:41:04.897Z,32.10
2023-01-20T18:43:52.118Z,35.47
2023-01-20T18:46:39.431Z,32.45
2023-01-20T18:49:26.859Z,30.10
2023-01-20T18:52:14.086Z,27.42
2023-01-20T18:55:01.468Z,18.90
2023-01-20T18:57:48.663Z,19.40
2023-01-20T19:00:35.828Z,17.40
2023-01-20T19:03:25.092Z,15.32
2023-01-20T19:06:21.159Z,10.70
2023-01-20T19:09:09.214Z,12.35
2023-01-20T19:11:56.345Z,15.02
2023-01-20T19:14:43.593Z,11.93
2023-01-20T19:17:33.060Z,11.15
2023-01-20T19:20:20.346Z,9.18
2023-01-20T19:23:07.519Z,9.95
2023-01-20T19:26:08.150Z,9.35
2023-01-20T19:28:59.904Z,9.52
2023-01-20T19:31:47.412Z,10.07
2023-01-20T19:34:35.511Z,10.07
2023-01-20T19:37:22.732Z,9.55
2023-01-20T19:40:10.978Z,9.20
2023-01-20T19:43:00.624Z,9.82
2023-01-20T19:45:47.816Z,9.25
2023-01-20T19:48:35.397Z,9.77
2023-01-20T19:51:22.716Z,9.48
2023-01-20T19:54:12.767Z,8.45
2023-01-20T19:57:00.495Z,8.93
2023-01-20T19:59:47.676Z,9.32
2023-01-20T20:02:35.136Z,8.50
2023-01-20T20:05:22.366Z,8.07
2023-01-20T20:08:09.697Z,7.93
2023-01-20T20:10:57.478Z,10.77
2023-01-20T20:13:44.782Z,9.63
2023-01-20T20:16:34.809Z,9.88
2023-01-20T20:19:22.119Z,9.65
2023-01-20T20:22:09.307Z,9.43
2023-01-20T20:24:56.451Z,8.85
2023-01-20T20:27:44.033Z,8.95
2023-01-20T20:30:31.393Z,9.73
2023-01-20T20:33:19.264Z,8.43
2023-01-20T20:36:10.619Z,9.13
2023-01-20T20:38:59.145Z,8.10
2023-01-20T20:41:46.879Z,8.73
2023-01-20T20:44:34.132Z,8.50
2023-01-20T20:47:21.452Z,8.82
2023-01-20T20:50:09.214Z,8.02
2023-01-20T20:52:58.055Z,7.80
2023-01-20T20:55:45.929Z,7.90
2023-01-20T20:58:33.478Z,8.27
2023-01-20T21:01:20.836Z,7.75
2023-01-20T21:04:08.787Z,12.48
2023-01-20T21:06:56.033Z,12.50
2023-01-20T21:09:45.828Z,10.60
2023-01-20T21:12:33.011Z,11.27
2023-01-20T21:15:20.213Z,11.60
2023-01-20T21:18:07.793Z,12.30
2023-01-20T21:21:02.464Z,13.90
2023-01-20T21:23:55.898Z,10.07
2023-01-20T21:26:43.239Z,11.93
2023-01-20T21:29:30.525Z,13.70
2023-01-20T21:32:17.849Z,13.15
2023-01-20T21:35:05.443Z,16.15
2023-01-20T21:37:52.764Z,15.93
2023-01-20T21:40:40.736Z,16.63
2023-01-20T21:43:53.409Z,12.35
2023-01-20T21:46:40.867Z,13.73
2023-01-20T21:49:46.606Z,19.35
2023-01-20T21:52:42.830Z,24.77
2023-01-20T21:55:30.021Z,22.17
2023-01-20T21:58:17.645Z,21.20
2023-01-20T22:01:05.083Z,20.00
2023-01-20T22:03:52.288Z,25.83
2023-01-20T22:06:41.106Z,23.95
2023-01-20T22:09:28.309Z,25.88
2023-01-20T22:12:15.778Z,26.80
2023-01-20T22:15:03.478Z,27.15
2023-01-20T22:17:50.749Z,25.90
2023-01-20T22:20:37.946Z,27.58
2023-01-20T22:23:25.189Z,31.50
2023-01-20T22:26:12.661Z,21.23
2023-01-20T22:28:59.820Z,18.88
2023-01-20T22:31:47.641Z,19.25
2023-01-20T22:34:34.840Z,19.50
2023-01-20T22:37:22.421Z,18.30
2023-01-20T22:40:10.505Z,19.70
2023-01-20T22:42:57.703Z,21.38
2023-01-20T22:45:47.297Z,20.67
2023-01-20T22:48:35.451Z,27.17
2023-01-20T22:51:25.046Z,24.27
2023-01-20T22:54:12.245Z,21.95
2023-01-20T22:57:02.325Z,20.65
2023-01-20T22:59:49.457Z,18.85
2023-01-20T23:02:38.788Z,19.83
2023-01-20T23:05:25.942Z,23.17
2023-01-20T23:08:13.067Z,21.90
2023-01-20T23:11:03.313Z,20.70
2023-01-20T23:13:52.218Z,20.02
2023-01-20T23:16:40.718Z,21.42
2023-01-20T23:19:27.911Z,22.20
2023-01-20T23:22:15.066Z,22.63
2023-01-20T23:25:02.271Z,20.58
2023-01-20T23:27:49.591Z,21.42
2023-01-20T23:30:37.104Z,20.00
2023-01-20T23:33:24.307Z,18.08
2023-01-20T23:36:23.750Z,18.13
2023-01-20T23:39:10.927Z,15.75
2023-01-20T23:41:58.292Z,15.90
2023-01-20T23:44:45.483Z,16.38
2023-01-20T23:47:32.753Z,15.68
2023-01-20T23:50:20.638Z,15.02
2023-01-20T23:53:07.776Z,17.67
2023-01-20T23:56:02.832Z,13.50
2023-01-20T23:58:51.107Z,15.80
